createdAt,value
2018-06-19T15:27:38.470Z,69.00
2018-06-19T15:30:11.839Z,69.90
2018-06-19T15:32:43.219Z,68.90
2018-06-19T15:35:15.575Z,68.90
2018-06-19T15:37:47.990Z,68.90
2018-06-19T15:40:17.181Z,69.60
2018-06-19T15:42:46.165Z,69.70
2018-06-19T15:45:15.865Z,69.80
2018-06-19T15:50:15.875Z,67.10
2018-06-19T15:52:45.794Z,67.40
2018-06-19T15:55:14.316Z,67.20
2018-06-19T15:57:48.941Z,66.90
2018-06-19T16:00:21.035Z,66.50
2018-06-19T16:02:53.513Z,67.40
2018-06-19T16:05:23.899Z,67.80
2018-06-19T16:07:58.476Z,67.80
2018-06-19T16:10:35.221Z,66.20
2018-06-19T16:13:04.318Z,66.40
2018-06-19T16:15:37.637Z,66.30
2018-06-19T16:18:06.375Z,66.40
2018-06-19T16:20:38.612Z,66.60
2018-06-19T16:23:09.241Z,66.10
2018-06-19T16:25:38.626Z,66.30
2018-06-19T16:28:08.295Z,66.80
2018-06-19T16:30:37.969Z,66.60
2018-06-19T16:33:07.866Z,66.00
2018-06-19T16:35:37.299Z,66.70
2018-06-19T16:38:06.520Z,67.50
2018-06-19T16:40:38.320Z,68.10
2018-06-19T16:43:08.012Z,68.30
2018-06-19T16:45:38.519Z,68.70
2018-06-19T16:48:07.471Z,68.40
2018-06-19T16:50:37.354Z,68.80
2018-06-19T16:53:06.162Z,69.30
2018-06-19T16:55:35.405Z,68.70
2018-06-19T16:58:05.276Z,69.10
2018-06-19T17:00:34.974Z,68.40
2018-06-19T17:03:09.072Z,67.50
2018-06-19T17:05:38.458Z,66.80
2018-06-19T17:08:08.170Z,67.60
2018-06-19T17:10:39.240Z,67.60
2018-06-19T17:15:43.421Z,67.10
2018-06-19T17:18:13.832Z,67.50
2018-06-19T17:20:45.760Z,67.60
2018-06-19T17:23:17.236Z,67.20
2018-06-19T17:25:47.407Z,67.30
2018-06-19T17:28:16.521Z,68.00
2018-06-19T17:30:44.986Z,67.40
2018-06-19T17:33:14.184Z,67.90
2018-06-19T17:35:43.151Z,68.10
2018-06-19T17:38:11.673Z,68.10
2018-06-19T17:40:41.874Z,69.10
2018-06-19T17:43:10.597Z,68.60
2018-06-19T17:45:43.917Z,69.10
2018-06-19T17:48:13.441Z,69.00
2018-06-19T17:50:42.219Z,68.50
2018-06-19T17:53:12.718Z,69.10
2018-06-19T17:55:41.283Z,69.50
2018-06-19T17:58:14.737Z,68.70
2018-06-19T18:00:44.071Z,68.40
2018-06-19T18:03:13.877Z,66.90
2018-06-19T18:05:44.028Z,65.80
2018-06-19T18:08:13.933Z,64.30
2018-06-19T18:10:43.319Z,63.10
2018-06-19T18:13:12.835Z,62.60
2018-06-19T18:15:42.693Z,64.40
2018-06-19T18:18:11.889Z,65.80
2018-06-19T18:20:40.390Z,67.40
2018-06-19T18:23:09.535Z,68.40
2018-06-19T18:25:41.211Z,69.90
2018-06-19T18:28:10.421Z,70.90
2018-06-19T18:30:39.230Z,71.70
2018-06-19T18:33:08.612Z,72.30
2018-06-19T18:35:41.575Z,72.50
2018-06-19T18:38:16.919Z,73.20
2018-06-19T18:40:48.360Z,73.60
2018-06-19T18:43:19.751Z,74.30
2018-06-19T18:45:49.500Z,74.90
2018-06-19T18:48:21.023Z,75.60
2018-06-19T18:50:52.120Z,76.40
2018-06-19T18:53:24.656Z,76.90
2018-06-19T18:55:57.913Z,77.80
2018-06-19T18:58:27.073Z,78.50
2018-06-19T19:00:57.509Z,78.90
2018-06-19T19:03:27.551Z,79.60
2018-06-19T19:05:58.494Z,80.00
2018-06-19T19:08:27.592Z,81.00
2018-06-19T19:11:14.441Z,80.80
2018-06-19T19:13:45.094Z,81.20
2018-06-19T19:16:22.341Z,81.40
2018-06-19T19:18:58.288Z,82.00
2018-06-19T19:21:28.688Z,82.90
2018-06-19T19:23:58.569Z,83.30
2018-06-19T19:26:35.177Z,83.80
2018-06-19T19:29:09.866Z,84.00
2018-06-19T19:31:41.732Z,84.20
2018-06-19T19:34:10.500Z,84.40
2018-06-19T19:36:48.299Z,84.60
2018-06-19T19:39:25.375Z,85.00
2018-06-19T19:41:57.813Z,85.10
2018-06-19T19:44:30.178Z,84.80
2018-06-19T19:47:07.577Z,85.20
2018-06-19T19:49:40.138Z,85.20
2018-06-19T19:52:11.830Z,85.50
2018-06-19T19:54:42.919Z,85.40
2018-06-19T19:57:18.776Z,85.40
2018-06-19T19:59:51.660Z,85.40
2018-06-19T20:02:24.960Z,85.30
2018-06-19T20:04:56.416Z,85.30
2018-06-19T20:07:27.383Z,85.30
2018-06-19T20:09:58.054Z,85.40
2018-06-19T20:12:27.345Z,85.70
2018-06-19T20:14:56.829Z,85.80
2018-06-19T20:17:25.828Z,85.90
2018-06-19T20:19:55.200Z,86.10
2018-06-19T20:22:24.523Z,86.10
2018-06-19T20:24:54.380Z,86.20
2018-06-19T20:27:23.532Z,86.30
